sensor_id;sensor_type;location;lat;lon;timestamp;pressure;altitude;pressure_sealevel;temperature
18474;BMP180;30265;52.408;13.500;2023-07-20T00:02:50;101371.00;;;22.70
18474;BMP180;30265;52.408;13.500;2023-07-20T00:13:12;101373.00;;;22.50
18474;BMP180;30265;52.408;13.500;2023-07-20T00:23:35;101383.00;;;22.40
18474;BMP180;30265;52.408;13.500;2023-07-20T00:33:57;101380.00;;;22.40
18474;BMP180;30265;52.408;13.500;2023-07-20T00:44:20;101383.00;;;22.40
18474;BMP180;30265;52.408;13.500;2023-07-20T00:54:44;101382.00;;;22.30
18474;BMP180;30265;52.408;13.500;2023-07-20T01:05:09;101377.00;;;22.20
18474;BMP180;30265;52.408;13.500;2023-07-20T01:15:33;101392.00;;;22.10
18474;BMP180;30265;52.408;13.500;2023-07-20T01:26:11;101390.00;;;22.20
18474;BMP180;30265;52.408;13.500;2023-07-20T01:36:36;101405.00;;;22.00
18474;BMP180;30265;52.408;13.500;2023-07-20T01:46:59;101407.00;;;22.00
18474;BMP180;30265;52.408;13.500;2023-07-20T01:57:22;101390.00;;;22.20
18474;BMP180;30265;52.408;13.500;2023-07-20T02:07:45;101391.00;;;22.40
18474;BMP180;30265;52.408;13.500;2023-07-20T02:18:12;101397.00;;;21.90
18474;BMP180;30265;52.408;13.500;2023-07-20T02:28:33;101403.00;;;21.80
18474;BMP180;30265;52.408;13.500;2023-07-20T02:38:56;101395.00;;;21.90
18474;BMP180;30265;52.408;13.500;2023-07-20T02:49:18;101404.00;;;22.10
18474;BMP180;30265;52.408;13.500;2023-07-20T02:59:42;101415.00;;;21.90
18474;BMP180;30265;52.408;13.500;2023-07-20T03:10:05;101426.00;;;21.90
18474;BMP180;30265;52.408;13.500;2023-07-20T03:20:31;101427.00;;;22.10
18474;BMP180;30265;52.408;13.500;2023-07-20T03:30:55;101434.00;;;22.10
18474;BMP180;30265;52.408;13.500;2023-07-20T03:41:22;101424.00;;;22.40
18474;BMP180;30265;52.408;13.500;2023-07-20T03:51:45;101413.00;;;22.30
18474;BMP180;30265;52.408;13.500;2023-07-20T04:02:13;101426.00;;;22.40
18474;BMP180;30265;52.408;13.500;2023-07-20T04:12:37;101432.00;;;22.20
18474;BMP180;30265;52.408;13.500;2023-07-20T04:23:02;101435.00;;;22.40
18474;BMP180;30265;52.408;13.500;2023-07-20T04:33:25;101427.00;;;22.50
18474;BMP180;30265;52.408;13.500;2023-07-20T04:43:52;101446.00;;;22.40
18474;BMP180;30265;52.408;13.500;2023-07-20T04:54:24;101432.00;;;22.50
18474;BMP180;30265;52.408;13.500;2023-07-20T05:04:50;101425.00;;;22.50
18474;BMP180;30265;52.408;13.500;2023-07-20T05:15:12;101435.00;;;22.30
18474;BMP180;30265;52.408;13.500;2023-07-20T05:25:36;101434.00;;;22.60
18474;BMP180;30265;52.408;13.500;2023-07-20T05:35:58;101439.00;;;22.50
18474;BMP180;30265;52.408;13.500;2023-07-20T05:46:24;101430.00;;;22.60
18474;BMP180;30265;52.408;13.500;2023-07-20T05:56:53;101402.00;;;23.80
18474;BMP180;30265;52.408;13.500;2023-07-20T06:07:16;101409.00;;;23.90
18474;BMP180;30265;52.408;13.500;2023-07-20T06:17:38;101415.00;;;23.20
18474;BMP180;30265;52.408;13.500;2023-07-20T06:28:01;101420.00;;;23.20
18474;BMP180;30265;52.408;13.500;2023-07-20T06:38:25;101406.00;;;23.40
18474;BMP180;30265;52.408;13.500;2023-07-20T06:48:51;101416.00;;;23.40
18474;BMP180;30265;52.408;13.500;2023-07-20T06:59:22;101429.00;;;22.80
18474;BMP180;30265;52.408;13.500;2023-07-20T07:09:49;101389.00;;;24.10
18474;BMP180;30265;52.408;13.500;2023-07-20T07:20:12;101407.00;;;23.70
18474;BMP180;30265;52.408;13.500;2023-07-20T07:30:42;101390.00;;;24.60
18474;BMP180;30265;52.408;13.500;2023-07-20T07:41:03;101403.00;;;24.20
18474;BMP180;30265;52.408;13.500;2023-07-20T07:51:26;101404.00;;;24.60
18474;BMP180;30265;52.408;13.500;2023-07-20T08:01:48;101414.00;;;25.20
18474;BMP180;30265;52.408;13.500;2023-07-20T08:12:11;101424.00;;;26.30
18474;BMP180;30265;52.408;13.500;2023-07-20T08:22:33;101444.00;;;25.20
18474;BMP180;30265;52.408;13.500;2023-07-20T08:32:56;101452.00;;;25.30
18474;BMP180;30265;52.408;13.500;2023-07-20T08:43:18;101462.00;;;24.70
18474;BMP180;30265;52.408;13.500;2023-07-20T08:53:41;101466.00;;;25.10
18474;BMP180;30265;52.408;13.500;2023-07-20T09:04:04;101457.00;;;25.90
18474;BMP180;30265;52.408;13.500;2023-07-20T09:14:30;101492.00;;;25.50
18474;BMP180;30265;52.408;13.500;2023-07-20T09:24:53;101494.00;;;26.20
18474;BMP180;30265;52.408;13.500;2023-07-20T09:35:17;101489.00;;;26.90
18474;BMP180;30265;52.408;13.500;2023-07-20T09:45:42;101465.00;;;27.90
18474;BMP180;30265;52.408;13.500;2023-07-20T09:56:16;101488.00;;;26.90
18474;BMP180;30265;52.408;13.500;2023-07-20T10:06:43;101491.00;;;27.60
18474;BMP180;30265;52.408;13.500;2023-07-20T10:29:26;101505.00;;;26.30
18474;BMP180;30265;52.408;13.500;2023-07-20T10:39:58;101499.00;;;26.00
18474;BMP180;30265;52.408;13.500;2023-07-20T10:51:13;101477.00;;;28.50
18474;BMP180;30265;52.408;13.500;2023-07-20T11:01:36;101513.00;;;26.40
18474;BMP180;30265;52.408;13.500;2023-07-20T11:12:26;101515.00;;;25.80
18474;BMP180;30265;52.408;13.500;2023-07-20T11:22:48;101529.00;;;25.60
18474;BMP180;30265;52.408;13.500;2023-07-20T11:33:13;101532.00;;;26.00
18474;BMP180;30265;52.408;13.500;2023-07-20T11:43:35;101532.00;;;26.20
18474;BMP180;30265;52.408;13.500;2023-07-20T11:53:59;101525.00;;;26.00
18474;BMP180;30265;52.408;13.500;2023-07-20T12:04:22;101510.00;;;26.70
18474;BMP180;30265;52.408;13.500;2023-07-20T12:14:46;101525.00;;;26.50
18474;BMP180;30265;52.408;13.500;2023-07-20T12:25:08;101514.00;;;27.30
18474;BMP180;30265;52.408;13.500;2023-07-20T12:35:32;101522.00;;;26.70
18474;BMP180;30265;52.408;13.500;2023-07-20T12:45:53;101526.00;;;26.90
18474;BMP180;30265;52.408;13.500;2023-07-20T12:56:17;101536.00;;;26.80
18474;BMP180;30265;52.408;13.500;2023-07-20T13:06:42;101520.00;;;27.20
18474;BMP180;30265;52.408;13.500;2023-07-20T13:17:05;101516.00;;;27.60
18474;BMP180;30265;52.408;13.500;2023-07-20T13:27:28;101511.00;;;28.20
18474;BMP180;30265;52.408;13.500;2023-07-20T13:37:53;101494.00;;;29.30
18474;BMP180;30265;52.408;13.500;2023-07-20T13:48:15;101483.00;;;28.80
18474;BMP180;30265;52.408;13.500;2023-07-20T13:58:45;101503.00;;;28.40
18474;BMP180;30265;52.408;13.500;2023-07-20T14:09:12;101461.00;;;29.90
18474;BMP180;30265;52.408;13.500;2023-07-20T14:19:39;101481.00;;;28.90
18474;BMP180;30265;52.408;13.500;2023-07-20T14:30:04;101475.00;;;29.40
18474;BMP180;30265;52.408;13.500;2023-07-20T14:40:37;101479.00;;;29.40
18474;BMP180;30265;52.408;13.500;2023-07-20T14:51:05;101477.00;;;29.10
18474;BMP180;30265;52.408;13.500;2023-07-20T15:01:28;101438.00;;;30.10
18474;BMP180;30265;52.408;13.500;2023-07-20T15:11:50;101445.00;;;29.60
18474;BMP180;30265;52.408;13.500;2023-07-20T15:22:14;101439.00;;;29.40
18474;BMP180;30265;52.408;13.500;2023-07-20T15:32:36;101445.00;;;29.90
18474;BMP180;30265;52.408;13.500;2023-07-20T15:43:02;101472.00;;;28.70
18474;BMP180;30265;52.408;13.500;2023-07-20T15:53:41;101460.00;;;29.00
18474;BMP180;30265;52.408;13.500;2023-07-20T16:04:04;101483.00;;;28.50
18474;BMP180;30265;52.408;13.500;2023-07-20T16:14:26;101481.00;;;28.30
18474;BMP180;30265;52.408;13.500;2023-07-20T16:24:49;101476.00;;;28.30
18474;BMP180;30265;52.408;13.500;2023-07-20T16:35:11;101481.00;;;28.50
18474;BMP180;30265;52.408;13.500;2023-07-20T16:45:34;101467.00;;;29.40
18474;BMP180;30265;52.408;13.500;2023-07-20T16:55:56;101489.00;;;28.40
18474;BMP180;30265;52.408;13.500;2023-07-20T17:06:19;101492.00;;;28.10
18474;BMP180;30265;52.408;13.500;2023-07-20T17:16:40;101503.00;;;27.70
18474;BMP180;30265;52.408;13.500;2023-07-20T17:27:04;101505.00;;;28.10
18474;BMP180;30265;52.408;13.500;2023-07-20T17:37:29;101501.00;;;27.90
18474;BMP180;30265;52.408;13.500;2023-07-20T17:48:12;101524.00;;;28.00
18474;BMP180;30265;52.408;13.500;2023-07-20T17:58:34;101519.00;;;27.30
18474;BMP180;30265;52.408;13.500;2023-07-20T18:08:57;101521.00;;;27.30
18474;BMP180;30265;52.408;13.500;2023-07-20T18:19:19;101533.00;;;26.70
18474;BMP180;30265;52.408;13.500;2023-07-20T18:29:42;101546.00;;;26.40
18474;BMP180;30265;52.408;13.500;2023-07-20T18:40:05;101558.00;;;26.00
18474;BMP180;30265;52.408;13.500;2023-07-20T18:50:29;101579.00;;;25.60
18474;BMP180;30265;52.408;13.500;2023-07-20T19:00:58;101587.00;;;25.40
18474;BMP180;30265;52.408;13.500;2023-07-20T19:11:21;101587.00;;;25.20
18474;BMP180;30265;52.408;13.500;2023-07-20T19:21:46;101591.00;;;25.00
18474;BMP180;30265;52.408;13.500;2023-07-20T19:32:09;101619.00;;;24.60
18474;BMP180;30265;52.408;13.500;2023-07-20T19:42:31;101626.00;;;24.50
18474;BMP180;30265;52.408;13.500;2023-07-20T19:52:54;101631.00;;;24.30
18474;BMP180;30265;52.408;13.500;2023-07-20T20:03:19;101637.00;;;24.10
18474;BMP180;30265;52.408;13.500;2023-07-20T20:13:46;101635.00;;;24.00
18474;BMP180;30265;52.408;13.500;2023-07-20T20:24:08;101650.00;;;24.00
18474;BMP180;30265;52.408;13.500;2023-07-20T20:34:31;101654.00;;;23.90
18474;BMP180;30265;52.408;13.500;2023-07-20T20:44:53;101661.00;;;23.80
18474;BMP180;30265;52.408;13.500;2023-07-20T20:55:17;101664.00;;;23.20
18474;BMP180;30265;52.408;13.500;2023-07-20T21:05:38;101661.00;;;23.00
18474;BMP180;30265;52.408;13.500;2023-07-20T21:16:02;101660.00;;;22.50
18474;BMP180;30265;52.408;13.500;2023-07-20T21:26:24;101662.00;;;21.90
18474;BMP180;30265;52.408;13.500;2023-07-20T21:36:48;101662.00;;;21.60
